Map

Track Data

SID SEASON NUMBER BASIN SUBBASIN NAME ISO_TIME NATURE LAT LON WMO_WIND WMO_PRES WMO_AGENCY TRACK_TYPE DIST2LAND LANDFALL IFLAG USA_AGENCY USA_ATCF_ID USA_LAT USA_LON USA_RECORD USA_STATUS USA_WIND USA_PRES USA_SSHS USA_R34_NE USA_R34_SE USA_R34_SW USA_R34_NW USA_R50_NE USA_R50_SE USA_R50_SW USA_R50_NW USA_R64_NE USA_R64_SE USA_R64_SW USA_R64_NW USA_POCI USA_ROCI USA_RMW USA_EYE TOKYO_LAT TOKYO_LON TOKYO_GRADE TOKYO_WIND TOKYO_PRES TOKYO_R50_DIR TOKYO_R50_LONG TOKYO_R50_SHORT TOKYO_R30_DIR TOKYO_R30_LONG TOKYO_R30_SHORT TOKYO_LAND CMA_LAT CMA_LON CMA_CAT CMA_WIND CMA_PRES HKO_LAT HKO_LON HKO_CAT HKO_WIND HKO_PRES NEWDELHI_LAT NEWDELHI_LON NEWDELHI_GRADE NEWDELHI_WIND NEWDELHI_PRES NEWDELHI_CI NEWDELHI_DP NEWDELHI_POCI REUNION_LAT REUNION_LON REUNION_TYPE REUNION_WIND REUNION_PRES REUNION_TNUM REUNION_CI REUNION_RMW REUNION_R34_NE REUNION_R34_SE REUNION_R34_SW REUNION_R34_NW REUNION_R50_NE REUNION_R50_SE REUNION_R50_SW REUNION_R50_NW REUNION_R64_NE REUNION_R64_SE REUNION_R64_SW REUNION_R64_NW BOM_LAT BOM_LON BOM_TYPE BOM_WIND BOM_PRES BOM_TNUM BOM_CI BOM_RMW BOM_R34_NE BOM_R34_SE BOM_R34_SW BOM_R34_NW BOM_R50_NE BOM_R50_SE BOM_R50_SW BOM_R50_NW BOM_R64_NE BOM_R64_SE BOM_R64_SW BOM_R64_NW BOM_ROCI BOM_POCI BOM_EYE BOM_POS_METHOD BOM_PRES_METHOD NADI_LAT NADI_LON NADI_CAT NADI_WIND NADI_PRES WELLINGTON_LAT WELLINGTON_LON WELLINGTON_WIND WELLINGTON_PRES DS824_LAT DS824_LON DS824_STAGE DS824_WIND DS824_PRES TD9636_LAT TD9636_LON TD9636_STAGE TD9636_WIND TD9636_PRES TD9635_LAT TD9635_LON TD9635_WIND TD9635_PRES TD9635_ROCI NEUMANN_LAT NEUMANN_LON NEUMANN_CLASS NEUMANN_WIND NEUMANN_PRES MLC_LAT MLC_LON MLC_CLASS MLC_WIND MLC_PRES USA_GUST BOM_GUST BOM_GUST_PER REUNION_GUST REUNION_GUST_PER USA_SEAHGT USA_SEARAD_NE USA_SEARAD_SE USA_SEARAD_SW USA_SEARAD_NW STORM_SPEED STORM_DIR
1935196N13133 1935 37 WP MM NOT_NAMED 1935-07-14 21:00:00 NR 13.0000 133.000 main 814 804 __________O___ -1 13.0000 133.000 2 3 304
1935196N13133 1935 37 WP MM NOT_NAMED 1935-07-15 00:00:00 NR 13.0890 132.867 main 807 789 __________P___ -1 13.0890 132.867 2 3 304
1935196N13133 1935 37 WP MM NOT_NAMED 1935-07-15 03:00:00 NR 13.1824 132.717 main 789 769 __________P___ -1 13.1824 132.717 2 4 301
1935196N13133 1935 37 WP MM NOT_NAMED 1935-07-15 06:00:00 NR 13.2846 132.534 main 769 749 __________P___ -1 13.2846 132.534 2 5 298
1935196N13133 1935 37 WP MM NOT_NAMED 1935-07-15 09:00:00 NR 13.4000 132.300 main 749 719 __________O___ -1 13.4000 132.300 2 6 295
1935196N13133 1935 37 WP MM NOT_NAMED 1935-07-15 12:00:00 NR 13.5301 132.005 main 719 690 __________P___ -1 13.5301 132.005 2 7 293
1935196N13133 1935 37 WP MM NOT_NAMED 1935-07-15 15:00:00 NR 13.6651 131.660 main 692 653 __________P___ -1 13.6651 131.660 2 7 291
1935196N13133 1935 37 WP MM NOT_NAMED 1935-07-15 18:00:00 NR 13.7925 131.286 main 653 615 __________P___ -1 13.7925 131.286 2 8 288
1935196N13133 1935 37 WP MM NOT_NAMED 1935-07-15 21:00:00 NR 13.9000 130.900 main 615 584 __________O___ -1 13.9000 130.900 2 7 281
1935196N13133 1935 37 WP MM NOT_NAMED 1935-07-16 00:00:00 NR 13.9308 130.531 main 574 543 __________P___ -1 13.9308 130.531 2 7 274
1935196N13133 1935 37 WP MM NOT_NAMED 1935-07-16 03:00:00 NR 13.9473 130.156 main 543 507 __________P___ -1 13.9473 130.156 2 7 275
1935196N13133 1935 37 WP MM NOT_NAMED 1935-07-16 06:00:00 NR 13.9902 129.778 main 507 473 __________P___ -1 13.9902 129.778 2 8 282
1935196N13133 1935 37 WP MM NOT_NAMED 1935-07-16 09:00:00 NR 14.1000 129.400 main 473 446 __________O___ -1 14.1000 129.400 2 8 293
1935196N13133 1935 37 WP MM NOT_NAMED 1935-07-16 12:00:00 NR 14.3079 129.001 main 446 429 __________P___ -1 14.3079 129.001 2 9 302
1935196N13133 1935 37 WP MM NOT_NAMED 1935-07-16 15:00:00 NR 14.5877 128.605 main 429 420 __________P___ -1 14.5877 128.605 2 10 310
1935196N13133 1935 37 WP MM NOT_NAMED 1935-07-16 18:00:00 NR 14.9236 128.232 main 420 408 __________P___ -1 14.9236 128.232 2 10 316
1935196N13133 1935 37 WP MM NOT_NAMED 1935-07-16 21:00:00 NR 15.3000 127.900 main 408 397 __________O___ -1 15.3000 127.900 4 10 323
1935196N13133 1935 37 WP MM NOT_NAMED 1935-07-17 00:00:00 NR 15.7050 127.624 main 398 395 __________P___ -1 15.7050 127.624 4 10 330
1935196N13133 1935 37 WP MM NOT_NAMED 1935-07-17 03:00:00 NR 16.1421 127.390 main 405 404 __________P___ -1 16.1421 127.390 4 10 334
1935196N13133 1935 37 WP MM NOT_NAMED 1935-07-17 06:00:00 NR 16.5832 127.186 main 426 426 __________P___ -1 16.5832 127.186 4 9 337
1935196N13133 1935 37 WP MM NOT_NAMED 1935-07-17 09:00:00 NR 17.0000 127.000 main 443 443 __________O___ -1 17.0000 127.000 4 9 335
1935196N13133 1935 37 WP MM NOT_NAMED 1935-07-17 12:00:00 NR 17.3699 126.794 main 459 440 __________P___ -1 17.3699 126.794 4 8 332
1935196N13133 1935 37 WP MM NOT_NAMED 1935-07-17 15:00:00 NR 17.7099 126.605 main 442 428 __________P___ -1 17.7099 126.605 4 7 332
1935196N13133 1935 37 WP MM NOT_NAMED 1935-07-17 18:00:00 NR 18.0200 126.438 main 428 422 __________P___ -1 18.0200 126.438 4 7 334
1935196N13133 1935 37 WP MM NOT_NAMED 1935-07-17 21:00:00 NR 18.3000 126.300 main 422 411 __________O___ -1 18.3000 126.300 4 6 336
1935196N13133 1935 37 WP MM NOT_NAMED 1935-07-18 00:00:00 NR 18.5537 126.188 main 411 402 __________P___ -1 18.5537 126.188 4 5 339
1935196N13133 1935 37 WP MM NOT_NAMED 1935-07-18 03:00:00 NR 18.7799 126.105 main 402 395 __________P___ -1 18.7799 126.105 4 5 343
1935196N13133 1935 37 WP MM NOT_NAMED 1935-07-18 06:00:00 NR 18.9912 126.044 main 395 395 __________P___ -1 18.9912 126.044 4 4 347
1935196N13133 1935 37 WP MM NOT_NAMED 1935-07-18 09:00:00 NR 19.2000 126.000 main 399 399 __________O___ -1 19.2000 126.000 4 4 349
1935196N13133 1935 37 WP MM NOT_NAMED 1935-07-18 12:00:00 NR 19.4169 125.961 main 405 398 __________P___ -1 19.4169 125.961 4 4 352
1935196N13133 1935 37 WP MM NOT_NAMED 1935-07-18 15:00:00 NR 19.6350 125.935 main 401 401 __________P___ -1 19.6350 125.935 4 4 354
1935196N13133 1935 37 WP MM NOT_NAMED 1935-07-18 18:00:00 NR 19.8606 125.917 main 413 413 __________P___ -1 19.8606 125.917 4 5 355
1935196N13133 1935 37 WP MM NOT_NAMED 1935-07-18 21:00:00 NR 20.1000 125.900 main 423 423 __________O___ -1 20.1000 125.900 4 5 355
1935196N13133 1935 37 WP MM NOT_NAMED 1935-07-19 00:00:00 NR 20.3687 125.883 main 438 438 __________P___ -1 20.3687 125.883 4 6 356
1935196N13133 1935 37 WP MM NOT_NAMED 1935-07-19 03:00:00 NR 20.6500 125.865 main 450 450 __________P___ -1 20.6500 125.865 4 6 356
1935196N13133 1935 37 WP MM NOT_NAMED 1935-07-19 06:00:00 NR 20.9312 125.839 main 460 460 __________P___ -1 20.9312 125.839 4 6 355
1935196N13133 1935 37 WP MM NOT_NAMED 1935-07-19 09:00:00 NR 21.2000 125.800 main 481 481 __________O___ -1 21.2000 125.800 4 5 347
1935196N13133 1935 37 WP MM NOT_NAMED 1935-07-19 12:00:00 NR 21.4150 125.727 main 481 463 __________P___ -1 21.4150 125.727 4 4 340
1935196N13133 1935 37 WP MM NOT_NAMED 1935-07-19 15:00:00 NR 21.6201 125.643 main 463 455 __________P___ -1 21.6201 125.643 4 5 340
1935196N13133 1935 37 WP MM NOT_NAMED 1935-07-19 18:00:00 NR 21.8400 125.562 main 455 435 __________P___ -1 21.8400 125.562 4 5 345
1935196N13133 1935 37 WP MM NOT_NAMED 1935-07-19 21:00:00 NR 22.1000 125.500 main 435 427 __________O___ -1 22.1000 125.500 4 6 355
1935196N13133 1935 37 WP MM NOT_NAMED 1935-07-20 00:00:00 NR 22.4603 125.494 main 425 412 __________P___ -1 22.4603 125.494 4 8 2
1935196N13133 1935 37 WP MM NOT_NAMED 1935-07-20 03:00:00 NR 22.8575 125.507 main 407 393 __________P___ -1 22.8575 125.507 4 8 0
1935196N13133 1935 37 WP MM NOT_NAMED 1935-07-20 06:00:00 NR 23.2509 125.516 main 389 378 __________P___ -1 23.2509 125.516 4 7 0
1935196N13133 1935 37 WP MM NOT_NAMED 1935-07-20 09:00:00 NR 23.6000 125.500 main 378 361 __________O___ -1 23.6000 125.500 4 6 354
1935196N13133 1935 37 WP MM NOT_NAMED 1935-07-20 12:00:00 NR 23.8706 125.441 main 361 357 __________P___ -1 23.8706 125.441 4 5 345
1935196N13133 1935 37 WP MM NOT_NAMED 1935-07-20 15:00:00 NR 24.0899 125.353 main 357 332 __________P___ -1 24.0899 125.353 4 4 335
1935196N13133 1935 37 WP MM NOT_NAMED 1935-07-20 18:00:00 NR 24.2643 125.238 main 332 320 __________P___ -1 24.2643 125.238 4 4 324
1935196N13133 1935 37 WP MM NOT_NAMED 1935-07-20 21:00:00 NR 24.4000 125.100 main 320 307 __________O___ -1 24.4000 125.100 4 3 313
1935196N13133 1935 37 WP MM NOT_NAMED 1935-07-21 00:00:00 NR 24.4904 124.970 main 307 288 __________P___ -1 24.4904 124.970 4 3 300
1935196N13133 1935 37 WP MM NOT_NAMED 1935-07-21 03:00:00 NR 24.5496 124.817 main 288 266 __________P___ -1 24.5496 124.817 4 3 291
1935196N13133 1935 37 WP MM NOT_NAMED 1935-07-21 06:00:00 NR 24.6091 124.630 main 266 244 __________P___ -1 24.6091 124.630 4 4 292
1935196N13133 1935 37 WP MM NOT_NAMED 1935-07-21 09:00:00 NR 24.7000 124.400 main 244 211 __________O___ -1 24.7000 124.400 4 5 300
1935196N13133 1935 37 WP MM NOT_NAMED 1935-07-21 12:00:00 NR 24.8764 124.123 main 211 181 __________P___ -1 24.8764 124.123 4 7 305
1935196N13133 1935 37 WP MM NOT_NAMED 1935-07-21 15:00:00 NR 25.0851 123.803 main 181 154 __________P___ -1 25.0851 123.803 4 7 305
1935196N13133 1935 37 WP MM NOT_NAMED 1935-07-21 18:00:00 NR 25.3013 123.457 main 154 123 __________P___ -1 25.3013 123.457 4 8 303
1935196N13133 1935 37 WP MM NOT_NAMED 1935-07-21 21:00:00 NR 25.5000 123.100 main 123 112 __________O___ -1 25.5000 123.100 4 7 302
1935196N13133 1935 37 WP MM NOT_NAMED 1935-07-22 00:00:00 NR 25.6567 122.838 main 112 105 __________P___ -1 25.6567 122.838 4 6 301
1935196N13133 1935 37 WP MM NOT_NAMED 1935-07-22 03:00:00 NR 25.7915 122.557 main 107 97 __________P___ -1 25.7915 122.557 4 6 293
1935196N13133 1935 37 WP MM NOT_NAMED 1935-07-22 06:00:00 NR 25.9058 122.197 main 98 87 __________P___ -1 25.9058 122.197 4 8 285
1935196N13133 1935 37 WP MM NOT_NAMED 1935-07-22 09:00:00 NR 26.0000 121.700 main 89 89 __________O___ -1 26.0000 121.700 4 11 280
1935196N13133 1935 37 WP MM NOT_NAMED 1935-07-22 12:00:00 NR 26.0948 120.962 main 105 31 __________P___ -1 26.0948 120.962 4 15 276
1935196N13133 1935 37 WP MM NOT_NAMED 1935-07-22 15:00:00 NR 26.1642 120.091 main 31 0 __________P___ -1 26.1642 120.091 4 16 274
1935196N13133 1935 37 WP MM NOT_NAMED 1935-07-22 18:00:00 NR 26.2009 119.174 main 0 0 __________P___ -1 26.2009 119.174 4 16 271
1935196N13133 1935 37 WP MM NOT_NAMED 1935-07-22 21:00:00 NR 26.2000 118.300 main 0 0 __________O___ -1 26.2000 118.300 4 14 268
1935196N13133 1935 37 WP MM NOT_NAMED 1935-07-23 00:00:00 NR 26.1408 117.636 main 0 0 __________P___ -1 26.1408 117.636 4 12 263
1935196N13133 1935 37 WP MM NOT_NAMED 1935-07-23 03:00:00 NR 26.0520 117.021 main 0 0 __________P___ -1 26.0520 117.021 4 11 261
1935196N13133 1935 37 WP MM NOT_NAMED 1935-07-23 06:00:00 NR 25.9625 116.395 main 0 0 __________P___ -1 25.9625 116.395 4 12 263
1935196N13133 1935 37 WP MM NOT_NAMED 1935-07-23 09:00:00 NR 25.9000 115.700 main 0 0 __________O___ -1 25.9000 115.700 4 14 267
1935196N13133 1935 37 WP MM NOT_NAMED 1935-07-23 12:00:00 NR 25.8841 114.890 main 0 0 __________P___ -1 25.8841 114.890 4 15 270
1935196N13133 1935 37 WP MM NOT_NAMED 1935-07-23 15:00:00 NR 25.9058 113.982 main 0 0 __________P___ -1 25.9058 113.982 4 17 272
1935196N13133 1935 37 WP MM NOT_NAMED 1935-07-23 18:00:00 NR 25.9494 113.008 main 0 0 __________P___ -1 25.9494 113.008 4 18 273
1935196N13133 1935 37 WP MM NOT_NAMED 1935-07-23 21:00:00 NR 26.0000 112.000 main 0 __________O___ -1 26.0000 112.000 4 18 273

Digital Typhoon Data and Search

About IBTrACS Database

This database is a web-friendly format of International Best Track Archive for Climate Stewardship (IBTrACS), a global best track data archive curated by NOAA dating back to 1842.

Updated: 2021-12-06